createdAt,value
2022-11-24T00:01:20.467Z,8.40
2022-11-24T00:04:04.042Z,8.30
2022-11-24T00:06:33.905Z,8.30
2022-11-24T00:09:02.287Z,8.40
2022-11-24T00:11:33.617Z,8.40
2022-11-24T00:14:01.899Z,8.30
2022-11-24T00:16:35.564Z,8.30
2022-11-24T00:19:05.231Z,8.20
2022-11-24T00:21:32.805Z,8.10
2022-11-24T00:24:00.451Z,8.10
2022-11-24T00:26:32.978Z,8.10
2022-11-24T00:29:03.224Z,8.10
2022-11-24T00:31:37.492Z,8.10
2022-11-24T00:34:09.956Z,8.10
2022-11-24T00:36:38.276Z,8.20
2022-11-24T00:39:08.802Z,8.30
2022-11-24T00:41:35.959Z,8.30
2022-11-24T00:44:03.555Z,8.30
2022-11-24T00:46:30.972Z,8.30
2022-11-24T00:48:58.641Z,8.30
2022-11-24T00:51:28.161Z,8.40
2022-11-24T00:53:56.511Z,8.30
2022-11-24T00:56:25.078Z,8.20
2022-11-24T00:58:52.383Z,8.30
2022-11-24T01:01:23.854Z,8.30
2022-11-24T01:03:51.236Z,8.30
2022-11-24T01:06:22.804Z,8.20
2022-11-24T01:08:50.512Z,8.20
2022-11-24T01:11:21.974Z,8.20
2022-11-24T01:13:53.728Z,8.30
2022-11-24T01:16:24.618Z,8.40
2022-11-24T01:18:52.347Z,8.40
2022-11-24T01:21:21.326Z,8.50
2022-11-24T01:23:48.475Z,8.60
2022-11-24T01:26:18.860Z,8.70
2022-11-24T01:28:47.420Z,8.70
2022-11-24T01:31:15.734Z,8.70
2022-11-24T01:33:43.018Z,8.80
2022-11-24T01:36:10.077Z,9.00
2022-11-24T01:38:37.150Z,8.90
2022-11-24T01:41:13.080Z,8.90
2022-11-24T01:43:41.019Z,9.00
2022-11-24T01:46:36.368Z,9.00
2022-11-24T01:49:18.224Z,9.10
2022-11-24T01:52:12.437Z,9.00
2022-11-24T01:54:45.686Z,9.00
2022-11-24T01:57:36.725Z,9.00
2022-11-24T02:00:09.437Z,9.10
2022-11-24T02:02:36.687Z,9.00
2022-11-24T02:05:11.286Z,9.10
2022-11-24T02:07:38.660Z,9.00
2022-11-24T02:10:15.659Z,9.00
2022-11-24T02:12:47.317Z,8.90
2022-11-24T02:15:17.790Z,9.00
2022-11-24T02:17:44.859Z,8.80
2022-11-24T02:20:13.736Z,8.70
2022-11-24T02:22:44.978Z,8.70
2022-11-24T02:25:59.833Z,8.50
2022-11-24T02:28:30.677Z,8.40
2022-11-24T02:31:00.196Z,8.50
2022-11-24T02:33:27.934Z,8.60
2022-11-24T02:35:55.108Z,8.40
2022-11-24T02:38:35.997Z,8.30
2022-11-24T02:41:18.360Z,8.20
2022-11-24T02:43:55.855Z,8.10
2022-11-24T02:46:23.479Z,8.10
2022-11-24T02:48:50.566Z,8.10
2022-11-24T02:51:18.060Z,8.00
2022-11-24T02:53:45.236Z,8.00
2022-11-24T02:56:12.897Z,8.00
2022-11-24T02:58:40.046Z,7.80
2022-11-24T03:01:07.294Z,7.70
2022-11-24T03:03:34.380Z,7.60
2022-11-24T03:06:01.324Z,7.50
2022-11-24T03:08:28.306Z,7.50
2022-11-24T03:10:55.497Z,7.50
2022-11-24T03:13:22.477Z,7.40
2022-11-24T03:15:49.513Z,7.40
2022-11-24T03:18:16.565Z,7.40
2022-11-24T03:20:44.255Z,7.40
2022-11-24T03:23:11.312Z,7.40
2022-11-24T03:25:38.271Z,7.40
2022-11-24T03:28:05.320Z,7.40
2022-11-24T03:30:32.402Z,7.40
2022-11-24T03:32:59.354Z,7.50
2022-11-24T03:35:26.348Z,7.40
2022-11-24T03:37:53.356Z,7.40
2022-11-24T03:40:20.309Z,7.40
2022-11-24T03:42:47.646Z,7.40
2022-11-24T03:45:45.580Z,7.40
2022-11-24T03:48:02.372Z,7.40
2022-11-24T03:50:29.475Z,7.40
2022-11-24T03:52:56.560Z,7.50
2022-11-24T03:55:23.614Z,7.50
2022-11-24T03:57:50.568Z,7.50
2022-11-24T04:00:18.012Z,7.50
2022-11-24T04:02:45.030Z,7.50
2022-11-24T04:05:12.027Z,7.50
2022-11-24T04:07:39.223Z,7.50
2022-11-24T04:10:07.195Z,7.50
2022-11-24T04:12:46.067Z,7.50
2022-11-24T04:15:17.598Z,7.50
2022-11-24T04:17:47.095Z,7.50
2022-11-24T04:20:15.545Z,7.50
2022-11-24T04:22:43.271Z,7.50
2022-11-24T04:25:11.036Z,7.40
2022-11-24T04:27:38.957Z,7.40
2022-11-24T04:30:08.238Z,7.40
2022-11-24T04:32:35.804Z,7.40
2022-11-24T04:35:03.657Z,7.40
2022-11-24T04:37:30.823Z,7.40
2022-11-24T04:39:57.784Z,7.40
2022-11-24T04:42:24.763Z,7.40
2022-11-24T04:44:51.887Z,7.40
2022-11-24T04:47:23.861Z,7.40
2022-11-24T04:49:51.765Z,7.40
2022-11-24T04:52:20.871Z,7.40
2022-11-24T04:54:49.358Z,7.40
2022-11-24T04:57:25.027Z,7.40
2022-11-24T04:59:53.404Z,7.50
2022-11-24T05:02:21.096Z,7.60
2022-11-24T05:04:48.507Z,7.60
2022-11-24T05:07:19.007Z,7.50
2022-11-24T05:10:06.219Z,7.50
2022-11-24T05:12:33.733Z,7.40
2022-11-24T05:15:02.948Z,7.50
2022-11-24T05:17:36.295Z,7.60
2022-11-24T05:20:05.466Z,7.70
2022-11-24T05:22:32.815Z,7.70
2022-11-24T05:24:59.960Z,7.60
2022-11-24T05:27:26.963Z,7.50
2022-11-24T05:29:53.965Z,7.50
2022-11-24T05:32:21.077Z,7.50
2022-11-24T05:34:48.082Z,7.50
2022-11-24T05:37:15.117Z,7.50
2022-11-24T05:39:42.399Z,7.60
2022-11-24T05:42:33.094Z,7.60
2022-11-24T05:45:00.239Z,7.70
2022-11-24T05:47:27.295Z,7.70
2022-11-24T05:49:54.368Z,7.70
2022-11-24T05:52:21.422Z,7.60
2022-11-24T05:54:48.537Z,7.60
2022-11-24T05:57:17.705Z,7.60
2022-11-24T05:59:45.344Z,7.50
2022-11-24T06:02:12.587Z,7.50
2022-11-24T06:04:39.714Z,7.50
2022-11-24T06:07:11.819Z,7.50
2022-11-24T06:09:40.415Z,7.50
2022-11-24T06:12:08.661Z,7.50
2022-11-24T06:14:36.448Z,7.40
2022-11-24T06:17:04.713Z,7.40
2022-11-24T06:19:32.354Z,7.60
2022-11-24T06:21:59.569Z,7.70
2022-11-24T06:24:26.613Z,7.80
2022-11-24T06:26:53.878Z,7.80
2022-11-24T06:29:20.857Z,7.90
2022-11-24T06:31:48.002Z,7.80
2022-11-24T06:34:15.181Z,7.70
2022-11-24T06:36:42.499Z,7.70
2022-11-24T06:39:10.800Z,7.70
2022-11-24T06:41:37.875Z,7.70
2022-11-24T06:44:05.318Z,7.60
2022-11-24T06:46:35.329Z,7.60
2022-11-24T06:49:02.654Z,7.60
2022-11-24T06:51:29.769Z,7.50
2022-11-24T06:53:56.837Z,7.50
2022-11-24T06:56:24.160Z,7.60
2022-11-24T06:58:53.432Z,7.60
2022-11-24T07:01:24.292Z,7.60
2022-11-24T07:03:53.190Z,7.60
2022-11-24T07:06:21.838Z,7.60
2022-11-24T07:08:50.309Z,7.60
2022-11-24T07:11:22.336Z,7.60
2022-11-24T07:13:56.475Z,7.60
2022-11-24T07:16:27.568Z,7.60
2022-11-24T07:18:55.734Z,7.60
2022-11-24T07:21:25.044Z,7.60
2022-11-24T07:23:55.416Z,7.70
2022-11-24T07:26:23.746Z,7.60
2022-11-24T07:28:51.293Z,7.60
2022-11-24T07:31:21.463Z,7.60
2022-11-24T07:33:54.020Z,7.60
2022-11-24T07:38:49.121Z,7.50
2022-11-24T07:41:19.651Z,7.50
2022-11-24T07:43:47.839Z,7.40
2022-11-24T07:46:17.835Z,7.50
2022-11-24T07:48:45.808Z,7.50
2022-11-24T07:51:13.299Z,7.40
2022-11-24T07:56:09.346Z,7.50
2022-11-24T07:58:38.263Z,7.50
2022-11-24T08:01:17.965Z,7.50
2022-11-24T08:03:46.426Z,7.50
2022-11-24T08:06:24.467Z,7.60
2022-11-24T08:08:55.426Z,7.70
2022-11-24T08:11:22.977Z,7.70
2022-11-24T08:13:50.164Z,7.70
2022-11-24T08:16:25.221Z,7.70
2022-11-24T08:18:54.898Z,7.80
2022-11-24T08:21:23.702Z,7.90
2022-11-24T08:23:55.783Z,8.00
2022-11-24T08:26:24.916Z,8.10
2022-11-24T08:28:58.950Z,8.20
2022-11-24T08:31:33.392Z,8.20
2022-11-24T08:34:02.235Z,8.20
2022-11-24T08:36:29.724Z,8.30
2022-11-24T08:38:58.804Z,8.70
2022-11-24T08:41:27.264Z,8.50
2022-11-24T08:43:57.671Z,8.50
2022-11-24T08:46:24.848Z,8.70
2022-11-24T08:48:55.398Z,8.80
2022-11-24T08:51:26.315Z,8.90
2022-11-24T08:53:58.743Z,9.00
2022-11-24T08:56:31.128Z,9.10
2022-11-24T08:58:58.935Z,9.10
2022-11-24T09:01:27.591Z,9.20
2022-11-24T09:03:55.381Z,9.20
2022-11-24T09:06:25.985Z,9.20
2022-11-24T09:08:55.785Z,9.10
2022-11-24T09:11:25.058Z,9.10
2022-11-24T09:13:53.204Z,9.10
2022-11-24T09:16:27.066Z,9.10
2022-11-24T09:19:04.218Z,9.10
2022-11-24T09:21:34.409Z,9.10
2022-11-24T09:24:01.628Z,9.00
2022-11-24T09:26:32.484Z,9.00
2022-11-24T09:29:02.503Z,9.00
2022-11-24T09:31:34.307Z,9.00
2022-11-24T09:34:06.212Z,9.00
2022-11-24T09:36:43.973Z,9.00
2022-11-24T09:39:11.748Z,9.00
2022-11-24T09:42:18.672Z,9.00
2022-11-24T09:45:15.158Z,9.00
2022-11-24T09:48:02.629Z,8.90
2022-11-24T09:50:36.363Z,8.90
2022-11-24T09:53:06.023Z,9.00
2022-11-24T09:55:46.612Z,9.20
2022-11-24T09:58:34.489Z,9.20
2022-11-24T10:01:05.749Z,9.30
2022-11-24T10:03:38.113Z,9.40
2022-11-24T10:06:34.901Z,9.50
2022-11-24T10:09:33.108Z,10.00
2022-11-24T10:12:21.067Z,9.90
2022-11-24T10:15:12.567Z,9.90
2022-11-24T10:17:59.050Z,9.80
2022-11-24T10:21:13.572Z,9.90
2022-11-24T10:24:32.366Z,9.80
2022-11-24T10:27:13.792Z,9.80
2022-11-24T10:29:42.850Z,9.80
2022-11-24T10:32:25.904Z,9.90
2022-11-24T10:34:54.771Z,9.90
2022-11-24T10:37:35.948Z,9.90
2022-11-24T10:40:56.583Z,9.90
2022-11-24T10:43:28.545Z,9.90
2022-11-24T10:46:15.232Z,10.00
2022-11-24T10:48:57.833Z,9.90
2022-11-24T10:51:38.944Z,9.80
2022-11-24T10:54:26.174Z,9.80
2022-11-24T10:56:55.721Z,9.90
2022-11-24T10:59:30.791Z,10.10
2022-11-24T11:01:58.846Z,10.10
2022-11-24T11:04:35.331Z,10.20
2022-11-24T11:07:10.148Z,10.30
2022-11-24T11:09:37.651Z,10.50
2022-11-24T11:15:30.893Z,10.40
2022-11-24T11:18:00.410Z,10.30
2022-11-24T11:20:33.875Z,10.30
2022-11-24T11:23:19.874Z,10.30
2022-11-24T11:25:47.038Z,10.30
2022-11-24T11:28:29.613Z,10.30
2022-11-24T11:31:21.758Z,10.30
2022-11-24T11:34:25.228Z,10.50
2022-11-24T11:37:04.785Z,10.60
2022-11-24T11:39:37.281Z,10.60
2022-11-24T11:42:53.862Z,10.50
2022-11-24T11:45:32.116Z,10.40
2022-11-24T11:48:01.812Z,10.40
2022-11-24T11:51:23.342Z,10.50
2022-11-24T11:54:16.732Z,10.50
2022-11-24T11:56:53.049Z,10.30
2022-11-24T12:00:02.572Z,10.30
2022-11-24T12:03:06.178Z,10.20
2022-11-24T12:06:02.817Z,10.50
2022-11-24T12:09:20.432Z,10.80
2022-11-24T12:12:09.878Z,11.00
2022-11-24T12:15:14.417Z,11.00
2022-11-24T12:17:56.074Z,11.00
2022-11-24T12:20:56.359Z,11.00
2022-11-24T12:23:31.746Z,11.00
2022-11-24T12:26:29.657Z,11.00
2022-11-24T12:29:38.630Z,11.70
2022-11-24T12:32:41.366Z,11.40
2022-11-24T12:36:04.777Z,12.00
2022-11-24T12:39:24.091Z,12.00
2022-11-24T12:42:14.714Z,12.20
2022-11-24T12:44:47.520Z,12.20
2022-11-24T12:47:37.617Z,12.30
2022-11-24T12:50:23.126Z,12.10
2022-11-24T12:53:22.521Z,12.30
2022-11-24T12:55:50.914Z,12.40
2022-11-24T12:58:52.614Z,12.20
2022-11-24T13:01:51.567Z,12.30
2022-11-24T13:04:59.726Z,12.30
2022-11-24T13:07:45.669Z,12.30
2022-11-24T13:10:53.613Z,12.30
2022-11-24T13:13:15.400Z,12.10
2022-11-24T13:16:35.222Z,12.30
2022-11-24T13:21:52.049Z,12.30
2022-11-24T13:24:20.066Z,12.20
2022-11-24T13:27:14.051Z,12.30
2022-11-24T13:29:49.635Z,12.20
2022-11-24T13:32:19.522Z,12.30
2022-11-24T13:34:59.800Z,12.40
2022-11-24T13:37:35.122Z,12.50
2022-11-24T13:40:23.015Z,12.40
2022-11-24T13:43:00.449Z,12.30
2022-11-24T13:45:40.675Z,12.20
2022-11-24T13:48:20.800Z,12.20
2022-11-24T13:50:51.955Z,12.10
2022-11-24T13:53:48.181Z,12.10
2022-11-24T13:56:20.638Z,12.00
2022-11-24T13:59:01.550Z,12.70
2022-11-24T14:01:31.067Z,12.20
2022-11-24T14:04:32.309Z,12.30
2022-11-24T14:07:09.045Z,12.20
2022-11-24T14:09:46.022Z,12.10
2022-11-24T14:12:33.870Z,12.10
2022-11-24T14:15:25.353Z,12.00
2022-11-24T14:17:52.818Z,12.20
2022-11-24T14:20:28.516Z,12.30
2022-11-24T14:22:55.640Z,12.30
2022-11-24T14:25:31.770Z,12.30
2022-11-24T14:28:00.629Z,12.20
2022-11-24T14:30:27.852Z,12.00
2022-11-24T14:33:02.607Z,12.00
2022-11-24T14:35:44.892Z,11.80
2022-11-24T14:38:13.313Z,11.80
2022-11-24T14:40:53.906Z,11.80
2022-11-24T14:43:30.088Z,11.70
2022-11-24T14:46:03.378Z,11.60
2022-11-24T14:48:51.315Z,11.50
2022-11-24T14:51:26.483Z,11.50
2022-11-24T14:53:58.967Z,11.40
2022-11-24T14:56:35.741Z,11.40
2022-11-24T15:03:01.996Z,11.10
2022-11-24T15:06:04.360Z,10.80
2022-11-24T15:08:44.202Z,10.70
2022-11-24T15:11:11.284Z,10.60
2022-11-24T15:13:39.214Z,10.40
2022-11-24T15:16:19.103Z,10.40
2022-11-24T15:18:58.855Z,10.30
2022-11-24T15:21:37.287Z,10.60
2022-11-24T15:24:17.966Z,10.50
2022-11-24T15:26:46.842Z,10.20
2022-11-24T15:29:13.906Z,10.10
2022-11-24T15:31:44.228Z,10.30
2022-11-24T15:34:15.497Z,10.20
2022-11-24T15:36:42.685Z,10.00
2022-11-24T15:39:09.706Z,9.70
2022-11-24T15:41:36.660Z,9.50
2022-11-24T15:44:03.897Z,9.30
2022-11-24T15:46:38.213Z,9.20
2022-11-24T15:49:06.417Z,9.10
2022-11-24T15:51:34.081Z,9.10
2022-11-24T15:54:01.679Z,9.10
2022-11-24T15:56:28.680Z,9.00
2022-11-24T15:58:55.692Z,8.90
2022-11-24T16:01:25.795Z,8.70
2022-11-24T16:03:52.788Z,8.60
2022-11-24T16:06:25.335Z,8.60
2022-11-24T16:08:54.302Z,8.50
2022-11-24T16:11:22.381Z,8.50
2022-11-24T16:13:53.031Z,8.50
2022-11-24T16:16:21.949Z,8.50
2022-11-24T16:18:49.196Z,8.40
2022-11-24T16:21:16.126Z,8.30
2022-11-24T16:23:43.086Z,8.20
2022-11-24T16:26:19.406Z,8.10
2022-11-24T16:29:05.900Z,8.00
2022-11-24T16:31:47.229Z,7.90
2022-11-24T16:34:16.021Z,8.00
2022-11-24T16:36:42.956Z,8.00
2022-11-24T16:39:09.868Z,7.90
2022-11-24T16:41:36.890Z,7.90
2022-11-24T16:44:04.124Z,7.80
2022-11-24T16:46:31.306Z,7.80
2022-11-24T16:49:03.541Z,7.70
2022-11-24T16:51:34.719Z,7.40
2022-11-24T16:54:02.915Z,7.40
2022-11-24T16:56:30.874Z,7.30
2022-11-24T16:58:57.988Z,7.40
2022-11-24T17:01:26.155Z,7.30
2022-11-24T17:03:53.432Z,7.30
2022-11-24T17:06:20.555Z,7.20
2022-11-24T17:08:48.370Z,7.00
2022-11-24T17:11:24.049Z,6.90
2022-11-24T17:13:52.142Z,7.00
2022-11-24T17:16:22.091Z,6.90
2022-11-24T17:18:49.992Z,6.80
2022-11-24T17:21:21.991Z,6.70
2022-11-24T17:23:55.438Z,6.60
2022-11-24T17:26:22.733Z,6.40
2022-11-24T17:28:49.994Z,6.40
2022-11-24T17:31:40.273Z,6.40
2022-11-24T17:34:08.281Z,6.40
2022-11-24T17:36:35.820Z,6.30
2022-11-24T17:39:05.320Z,6.30
2022-11-24T17:41:33.532Z,6.30
2022-11-24T17:44:00.503Z,6.30
2022-11-24T17:46:29.415Z,6.20
2022-11-24T17:48:56.653Z,6.10
2022-11-24T17:51:25.886Z,6.20
2022-11-24T17:53:54.509Z,6.20
2022-11-24T17:56:30.334Z,6.10
2022-11-24T17:58:59.768Z,6.10
2022-11-24T18:01:30.341Z,6.10
2022-11-24T18:03:58.358Z,6.20
2022-11-24T18:06:27.964Z,6.20
2022-11-24T18:08:57.691Z,6.10
2022-11-24T18:11:32.386Z,6.00
2022-11-24T18:14:03.282Z,6.00
2022-11-24T18:16:34.931Z,5.90
2022-11-24T18:19:14.287Z,5.90
2022-11-24T18:21:43.980Z,5.90
2022-11-24T18:24:13.777Z,5.80
2022-11-24T18:26:42.752Z,5.80
2022-11-24T18:29:11.567Z,5.80
2022-11-24T18:31:39.277Z,5.70
2022-11-24T18:34:07.099Z,5.70
2022-11-24T18:36:38.366Z,5.70
2022-11-24T18:39:08.928Z,5.60
2022-11-24T18:41:38.445Z,5.40
2022-11-24T18:44:08.791Z,5.30
2022-11-24T18:46:37.569Z,5.20
2022-11-24T18:49:05.211Z,5.10
2022-11-24T18:51:32.109Z,5.10
2022-11-24T18:53:59.844Z,5.10
2022-11-24T18:56:27.217Z,5.00
2022-11-24T18:58:56.383Z,5.00
2022-11-24T19:01:27.426Z,4.90
2022-11-24T19:03:58.659Z,4.90
2022-11-24T19:06:35.563Z,4.70
2022-11-24T19:09:13.309Z,4.80
2022-11-24T19:11:43.600Z,4.70
2022-11-24T19:14:17.764Z,4.50
2022-11-24T19:16:47.779Z,4.50
2022-11-24T19:19:16.521Z,4.50
2022-11-24T19:21:43.771Z,4.60
2022-11-24T19:24:11.204Z,4.50
2022-11-24T19:26:39.252Z,4.50
2022-11-24T19:29:07.571Z,4.40
2022-11-24T19:31:35.749Z,4.40
2022-11-24T19:34:03.689Z,4.60
2022-11-24T19:36:31.386Z,4.70
2022-11-24T19:39:00.046Z,4.80
2022-11-24T19:41:30.352Z,4.90
2022-11-24T19:44:01.221Z,4.90
2022-11-24T19:46:30.147Z,4.90
2022-11-24T19:49:01.774Z,4.90
2022-11-24T19:51:36.512Z,5.00
2022-11-24T19:54:07.148Z,5.00
2022-11-24T19:56:37.321Z,4.90
2022-11-24T19:59:06.590Z,4.90
2022-11-24T20:01:39.894Z,4.90
2022-11-24T20:04:13.804Z,4.90
2022-11-24T20:06:44.408Z,4.90
2022-11-24T20:09:15.229Z,4.90
2022-11-24T20:11:43.758Z,4.80
2022-11-24T20:14:14.344Z,4.70
2022-11-24T20:16:42.576Z,4.70
2022-11-24T20:19:15.617Z,4.60
2022-11-24T20:21:47.921Z,4.60
2022-11-24T20:24:19.366Z,4.50
2022-11-24T20:26:50.849Z,4.50
2022-11-24T20:29:19.010Z,4.50
2022-11-24T20:31:53.500Z,4.40
2022-11-24T20:34:22.528Z,4.30
2022-11-24T20:36:50.112Z,4.30
2022-11-24T20:39:26.705Z,4.30
2022-11-24T20:41:55.622Z,4.20
2022-11-24T20:44:26.461Z,4.20
2022-11-24T20:46:56.873Z,4.00
2022-11-24T20:49:24.115Z,3.90
2022-11-24T20:51:54.612Z,4.00
2022-11-24T20:54:22.275Z,3.90
2022-11-24T20:56:49.632Z,4.00
2022-11-24T20:59:23.485Z,4.10
2022-11-24T21:01:54.260Z,4.10
2022-11-24T21:04:25.950Z,3.90
2022-11-24T21:06:53.160Z,3.60
2022-11-24T21:09:20.595Z,3.60
2022-11-24T21:11:47.808Z,3.60
2022-11-24T21:14:15.194Z,3.60
2022-11-24T21:16:43.194Z,3.50
2022-11-24T21:19:18.217Z,3.30
2022-11-24T21:21:47.698Z,3.40
2022-11-24T21:24:18.120Z,3.50
2022-11-24T21:26:51.825Z,3.50
2022-11-24T21:29:22.273Z,3.30
2022-11-24T21:31:49.741Z,3.30
2022-11-24T21:34:19.239Z,3.20
2022-11-24T21:36:46.896Z,3.20
2022-11-24T21:39:15.374Z,3.30
2022-11-24T21:41:43.321Z,3.20
2022-11-24T21:44:13.085Z,3.20
2022-11-24T21:46:46.169Z,3.10
2022-11-24T21:49:16.731Z,3.10
2022-11-24T21:51:43.913Z,3.00
2022-11-24T21:54:11.117Z,2.90
2022-11-24T21:56:38.256Z,2.90
2022-11-24T21:59:05.351Z,2.70
2022-11-24T22:01:32.532Z,2.50
2022-11-24T22:03:59.647Z,2.90
2022-11-24T22:06:26.871Z,3.00
2022-11-24T22:08:55.384Z,3.20
2022-11-24T22:11:25.125Z,3.20
2022-11-24T22:13:53.428Z,3.20
2022-11-24T22:16:25.727Z,3.00
2022-11-24T22:18:53.162Z,2.70
2022-11-24T22:21:24.370Z,2.80
2022-11-24T22:23:55.283Z,2.80
2022-11-24T22:26:24.155Z,3.10
2022-11-24T22:28:52.369Z,3.10
2022-11-24T22:31:25.867Z,3.00
2022-11-24T22:33:54.408Z,3.00
2022-11-24T22:36:24.384Z,2.90
2022-11-24T22:39:03.194Z,2.80
2022-11-24T22:41:32.726Z,2.50
2022-11-24T22:43:59.996Z,2.60
2022-11-24T22:46:29.340Z,2.10
2022-11-24T22:49:00.502Z,2.50
2022-11-24T22:51:33.303Z,2.20
2022-11-24T22:54:05.613Z,2.20
2022-11-24T22:56:33.846Z,2.20
2022-11-24T22:59:02.440Z,2.30
2022-11-24T23:01:31.647Z,3.00
2022-11-24T23:03:58.628Z,2.40
2022-11-24T23:06:28.955Z,2.60
2022-11-24T23:08:58.150Z,2.60
2022-11-24T23:11:37.448Z,2.40
2022-11-24T23:14:08.409Z,2.30
2022-11-24T23:16:35.537Z,2.20
2022-11-24T23:19:02.907Z,2.30
2022-11-24T23:21:32.865Z,2.40
2022-11-24T23:24:03.229Z,2.30
2022-11-24T23:26:38.524Z,2.30
2022-11-24T23:29:06.928Z,2.40
2022-11-24T23:31:34.440Z,2.40
2022-11-24T23:34:03.993Z,2.60
2022-11-24T23:36:32.850Z,2.50
2022-11-24T23:39:08.683Z,2.40
2022-11-24T23:41:35.778Z,2.40
2022-11-24T23:44:02.887Z,2.20
2022-11-24T23:46:29.920Z,2.20
2022-11-24T23:48:57.089Z,2.30
2022-11-24T23:51:29.600Z,2.20
2022-11-24T23:53:58.191Z,2.20
2022-11-24T23:56:32.683Z,2.20
2022-11-24T23:59:01.750Z,2.30
